Latest Weather Observations for Sellicks Hill

IDS60901

Issued at 1:31 am CST Sunday 26 April 2015 (issued every 10 minutes, with the page automatically refreshed every 10 minutes)

About weather observations | Map of Adelaide area stations | Latest observations for Adelaide area | Other Formats
Station Details ID: 023886 Name: MOUNT TERRIBLE RADAR Lat: -35.33 Lon: 138.50 Height: 385.7 m
Data from the previous 72 hours. | See also: Recent months for locations in South Australia
Date/Time
CST
Tmp

°C
App
Tmp
°C
Dew
Point
°C
Rel
Hum
%
Delta-T

°C
Wind Press
QNH
hPa
Press
MSL
hPa
Rain
since
9 am
mm
Dir
 
Spd
km/h
Gust
km/h
Spd
kts
Gust
kts
25/06:00pm - - - - - S 35 44 19 24 - - -
25/05:30pm - - - - - S 39 50 21 27 - - -
25/05:07pm - - - - - S 28 54 15 29 - - -
25/05:00pm - - - - - S 26 43 14 23 - - -
25/04:52pm - - - - - S 30 50 16 27 - - -
25/04:30pm - - - - - S 41 57 22 31 - - -
25/04:04pm - - - - - S 41 59 22 32 - - -
25/04:00pm - - - - - S 41 56 22 30 - - -
25/03:30pm - - - - - S 43 65 23 35 - - -
25/03:29pm - - - - - S 44 65 24 35 - - -
25/03:00pm - - - - - S 46 61 25 33 - - -
25/02:30pm - - - - - S 43 59 23 32 - - -
25/02:16pm - - - - - S 33 57 18 31 - - -
25/02:00pm - - - - - S 37 50 20 27 - - -
25/01:40pm - - - - - S 28 50 15 27 - - -
25/01:30pm - - - - - S 20 43 11 23 - - -
25/01:00pm - - - - - S 11 22 6 12 - - -
25/12:30pm - - - - - SW 9 19 5 10 - - -
25/12:00pm - - - - - SW 11 22 6 12 - - -
25/11:30am - - - - - SW 9 19 5 10 - - -
25/11:00am - - - - - SSW 11 22 6 12 - - -
25/10:30am - - - - - SW 9 19 5 10 - - -
25/10:00am - - - - - SW 6 19 3 10 - - -
25/09:30am - - - - - S 13 20 7 11 - - -
25/09:00am - - - - - S 24 33 13 18 - - -
25/08:30am - - - - - S 28 32 15 17 - - -
25/08:00am - - - - - S 24 33 13 18 - - -
25/07:30am - - - - - SSE 26 32 14 17 - - -
25/07:00am - - - - - S 24 28 13 15 - - -
25/06:30am - - - - - SSE 30 33 16 18 - - -
25/06:00am - - - - - SSE 33 43 18 23 - - -
25/05:30am - - - - - SSE 32 41 17 22 - - -
25/05:00am - - - - - SSE 33 43 18 23 - - -
25/04:30am - - - - - SSE 39 56 21 30 - - -
25/04:28am - - - - - S 39 56 21 30 - - -
25/04:00am - - - - - S 20 33 11 18 - - -
25/03:30am - - - - - S 26 35 14 19 - - -
25/03:00am - - - - - SSE 30 35 16 19 - - -
25/02:30am - - - - - SSE 39 46 21 25 - - -
25/02:00am - - - - - SSE 28 35 15 19 - - -
25/01:30am - - - - - SE 24 32 13 17 - - -
25/01:00am - - - - - SE 24 30 13 16 - - -
25/12:30am - - - - - SSE 19 26 10 14 - - -
25/12:00am - - - - - WNW 9 17 5 9 - - -
 
Date/Time
CST
Tmp

°C
App
Tmp
°C
Dew
Point
°C
Rel
Hum
%
Delta-T

°C
Wind Press
QNH
hPa
Press
MSL
hPa
Rain
since
9 am
mm
Dir
 
Spd
km/h
Gust
km/h
Spd
kts
Gust
kts
24/11:30pm - - - - - NW 11 22 6 12 - - -
24/11:00pm - - - - - NNW 17 28 9 15 - - -
24/10:30pm - - - - - NNW 20 35 11 19 - - -
24/10:00pm - - - - - NNW 24 37 13 20 - - -
24/09:30pm - - - - - NNW 22 39 12 21 - - -
24/09:00pm - - - - - NNW 22 39 12 21 - - -
24/08:30pm - - - - - NNW 20 32 11 17 - - -
24/08:00pm - - - - - NNW 24 43 13 23 - - -
24/07:30pm - - - - - NNW 24 43 13 23 - - -
24/07:00pm - - - - - NNW 22 43 12 23 - - -
24/06:30pm - - - - - NW 20 39 11 21 - - -
24/06:00pm - - - - - NNW 22 35 12 19 - - -
24/05:30pm - - - - - NW 20 37 11 20 - - -
24/05:00pm - - - - - NNW 20 39 11 21 - - -
24/04:30pm - - - - - NW 17 32 9 17 - - -
24/04:00pm - - - - - NW 17 32 9 17 - - -
24/03:30pm - - - - - NW 17 33 9 18 - - -
24/03:00pm - - - - - WNW 20 35 11 19 - - -
24/02:30pm - - - - - WNW 19 33 10 18 - - -
24/02:00pm - - - - - WNW 17 33 9 18 - - -
24/01:30pm - - - - - WNW 19 39 10 21 - - -
24/01:00pm - - - - - WNW 22 41 12 22 - - -
24/12:30pm - - - - - WNW 17 39 9 21 - - -
24/12:00pm - - - - - WNW 15 30 8 16 - - -
24/11:30am - - - - - WNW 15 30 8 16 - - -
24/11:00am - - - - - W 13 28 7 15 - - -
24/10:30am - - - - - W 19 37 10 20 - - -
24/10:00am - - - - - W 19 39 10 21 - - -
24/09:30am - - - - - W 26 50 14 27 - - -
24/09:22am - - - - - NW 26 50 14 27 - - -
24/09:00am - - - - - NW 19 32 10 17 - - -
24/08:30am - - - - - NW 24 41 13 22 - - -
24/08:15am - - - - - NNW 28 46 15 25 - - -
24/08:00am - - - - - NNW 28 41 15 22 - - -
24/07:30am - - - - - NNW 28 39 15 21 - - -
24/07:00am - - - - - NNW 20 35 11 19 - - -
24/06:30am - - - - - NNW 20 32 11 17 - - -
24/06:00am - - - - - NW 17 26 9 14 - - -
24/05:30am - - - - - NW 13 26 7 14 - - -
24/05:00am - - - - - NW 11 22 6 12 - - -
24/04:30am - - - - - NW 11 19 6 10 - - -
24/04:00am - - - - - NW 7 15 4 8 - - -
24/03:30am - - - - - WNW 9 15 5 8 - - -
24/03:00am - - - - - WNW 9 19 5 10 - - -
24/02:30am - - - - - NW 9 15 5 8 - - -
24/02:00am - - - - - WNW 6 11 3 6 - - -
24/01:30am - - - - - NW 7 11 4 6 - - -
24/01:00am - - - - - NNW 6 7 3 4 - - -
24/12:30am - - - - - NNW 6 7 3 4 - - -
24/12:00am - - - - - NW 4 6 2 3 - - -
 
Date/Time
CST
Tmp

°C
App
Tmp
°C
Dew
Point
°C
Rel
Hum
%
Delta-T

°C
Wind Press
QNH
hPa
Press
MSL
hPa
Rain
since
9 am
mm
Dir
 
Spd
km/h
Gust
km/h
Spd
kts
Gust
kts
23/11:30pm - - - - - WNW 4 6 2 3 - - -
23/11:00pm - - - - - WSW 4 6 2 3 - - -
23/10:30pm - - - - - W 4 7 2 4 - - -
23/10:00pm - - - - - WSW 4 6 2 3 - - -
23/09:30pm - - - - - WSW 4 7 2 4 - - -
23/09:00pm - - - - - SW 2 7 1 4 - - -
23/08:30pm - - - - - SSW 6 9 3 5 - - -
23/08:00pm - - - - - S 4 6 2 3 - - -
23/07:30pm - - - - - S 7 9 4 5 - - -
23/07:00pm - - - - - SSW 7 11 4 6 - - -
23/06:30pm - - - - - SW 7 11 4 6 - - -
23/06:00pm - - - - - W 6 13 3 7 - - -
23/05:30pm - - - - - NW 4 7 2 4 - - -
23/05:00pm - - - - - WNW 4 7 2 4 - - -
23/04:30pm - - - - - WNW 2 7 1 4 - - -
23/04:00pm - - - - - S 2 9 1 5 - - -
23/03:30pm - - - - - SE 6 9 3 5 - - -
23/03:00pm - - - - - SSE 7 9 4 5 - - -
23/02:30pm - - - - - SE 6 9 3 5 - - -
23/02:00pm - - - - - SE 11 15 6 8 - - -
23/01:30pm - - - - - SSE 15 19 8 10 - - -
23/01:00pm - - - - - SE 15 19 8 10 - - -
23/12:30pm - - - - - SE 11 19 6 10 - - -
23/12:00pm - - - - - SE 11 15 6 8 - - -
23/11:30am - - - - - SSE 11 15 6 8 - - -
23/11:00am - - - - - SE 11 13 6 7 - - -
23/10:30am - - - - - SE 13 17 7 9 - - -
23/10:00am - - - - - SE 7 11 4 6 - - -
23/09:30am - - - - - SE 17 20 9 11 - - -
23/09:00am - - - - - SE 19 20 10 11 - - -
23/08:30am - - - - - SE 19 22 10 12 - - -
23/08:00am - - - - - SE 20 24 11 13 - - -
23/07:30am - - - - - SSE 19 22 10 12 - - -
23/07:00am - - - - - SE 19 22 10 12 - - -
23/06:30am - - - - - SSE 17 19 9 10 - - -
23/06:00am - - - - - SE 19 20 10 11 - - -
23/05:30am - - - - - SE 19 20 10 11 - - -
23/05:00am - - - - - SE 19 20 10 11 - - -
23/04:30am - - - - - SE 19 24 10 13 - - -
23/04:00am - - - - - SE 20 24 11 13 - - -
23/03:30am - - - - - SSE 20 24 11 13 - - -
23/03:00am - - - - - SSE 24 26 13 14 - - -
23/02:30am - - - - - SE 22 28 12 15 - - -
23/02:00am - - - - - SE 28 32 15 17 - - -

Latest Capital City Observations: Canberra | Sydney | Melbourne | Brisbane | Adelaide | Perth | Hobart | Darwin

Other Formats:

Comma delimited format used in spreadsheet applications
http://www.bom.gov.au/fwo/IDS60901/IDS60901.95679.axf

JavaScript Object Notation format (JSON) in row-major order
http://www.bom.gov.au/fwo/IDS60901/IDS60901.95679.json